Time;durP1;ratioP1;P1;durP2;ratioP2;P2;SDS_P1;SDS_P2;PMS_P1;PMS_P2;Temp;Humidity;BMP_temperature;BMP_pressure;BME280_temperature;BME280_humidity;BME280_pressure;Samples;Min_cycle;Max_cycle;Signal;HPM_P1;HPM_P2
2022/02/01 00:02:05;;;;;;;14.13;8.20;;;4.30;99.90;;;;;;4861910;29;20460;-77
2022/02/01 00:05:07;;;;;;;16.77;8.40;;;4.30;99.90;;;;;;4851468;29;20858;-78
2022/02/01 00:11:13;;;;;;;14.80;7.63;;;4.30;99.90;;;;;;4849883;29;20463;-77
2022/02/01 00:14:21;;;;;;;12.23;7.20;;;4.30;99.90;;;;;;4836337;29;20491;-77
2022/02/01 00:38:52;;;;;;;12.60;7.03;;;4.30;99.90;;;;;;4848740;29;20464;-77
2022/02/01 00:41:47;;;;;;;12.33;7.97;;;4.20;99.90;;;;;;4848832;29;20493;-78
2022/02/01 00:44:36;;;;;;;15.67;7.83;;;4.30;99.90;;;;;;4848821;29;21051;-78
2022/02/01 00:47:28;;;;;;;12.00;6.70;;;4.20;99.90;;;;;;4849745;29;20456;-77
2022/02/01 00:50:16;;;;;;;13.93;7.30;;;4.30;99.90;;;;;;4849079;29;20573;-78
2022/02/01 00:53:06;;;;;;;11.83;6.40;;;4.30;99.90;;;;;;4849060;29;20836;-78
2022/02/01 00:55:54;;;;;;;10.23;7.20;;;4.30;99.90;;;;;;4847567;29;20485;-77
2022/02/01 00:58:42;;;;;;;11.90;6.57;;;4.30;99.90;;;;;;4861350;29;20472;-77
2022/02/01 01:01:33;;;;;;;14.83;6.57;;;4.30;99.90;;;;;;4847602;29;20470;-77
2022/02/01 01:04:26;;;;;;;9.97;4.97;;;4.30;99.90;;;;;;4847919;29;20540;-77
2022/02/01 01:07:13;;;;;;;10.43;6.00;;;4.30;99.90;;;;;;4848934;29;20457;-77
2022/02/01 01:10:02;;;;;;;11.97;5.70;;;4.30;99.90;;;;;;4847134;29;21068;-81
2022/02/01 01:43:43;;;;;;;7.40;2.87;;;4.40;99.90;;;;;;4849118;29;20488;-78
2022/02/01 01:53:11;;;;;;;5.07;2.40;;;4.60;99.90;;;;;;4858052;29;20475;-77
2022/02/01 01:56:00;;;;;;;4.93;1.93;;;4.60;99.90;;;;;;4858095;29;20484;-78
2022/02/01 01:58:48;;;;;;;4.27;2.00;;;4.60;99.90;;;;;;4853145;29;20471;-77
2022/02/01 02:01:35;;;;;;;4.87;2.03;;;4.60;99.90;;;;;;4855226;29;20448;-78
2022/02/01 02:04:22;;;;;;;6.60;2.60;;;4.60;99.90;;;;;;4849615;29;20616;-78
2022/02/01 02:07:12;;;;;;;4.13;1.90;;;4.60;99.90;;;;;;4851016;29;20839;-77
2022/02/01 02:10:02;;;;;;;4.33;1.60;;;4.60;99.90;;;;;;4863398;29;20849;-78
2022/02/01 02:13:02;;;;;;;5.93;2.03;;;4.50;99.90;;;;;;4855139;29;20474;-78
2022/02/01 02:16:00;;;;;;;5.00;1.80;;;4.60;99.90;;;;;;4864959;29;20472;-77
2022/02/01 02:18:49;;;;;;;8.27;2.03;;;4.60;99.90;;;;;;4854320;29;20459;-77
2022/02/01 02:21:38;;;;;;;4.17;1.70;;;4.50;99.90;;;;;;4855360;29;20460;-77
2022/02/01 02:24:30;;;;;;;5.50;1.90;;;4.50;99.90;;;;;;4858271;29;21005;-77
2022/02/01 02:27:20;;;;;;;4.53;1.40;;;4.50;99.90;;;;;;4853309;29;20468;-77
2022/02/01 02:30:09;;;;;;;5.97;1.80;;;4.50;99.90;;;;;;4849535;29;20506;-77
2022/02/01 02:33:09;;;;;;;9.00;2.30;;;4.50;99.90;;;;;;4852405;29;20977;-77
2022/02/01 02:36:04;;;;;;;8.60;1.93;;;4.50;99.90;;;;;;4850943;29;20483;-77
2022/02/01 02:38:59;;;;;;;3.83;1.47;;;4.50;99.90;;;;;;4849783;29;20458;-78
2022/02/01 02:42:07;;;;;;;7.30;1.50;;;4.40;99.90;;;;;;4861391;29;20471;-78
2022/02/01 02:45:05;;;;;;;5.33;1.53;;;4.50;99.90;;;;;;4851864;29;20472;-77
2022/02/01 02:47:54;;;;;;;3.77;1.70;;;4.50;99.90;;;;;;4863993;29;20463;-77
2022/02/01 02:50:44;;;;;;;9.53;2.20;;;4.50;99.90;;;;;;4862827;29;21173;-77
2022/02/01 02:53:34;;;;;;;9.00;2.00;;;4.40;99.90;;;;;;4852129;29;22051;-78
2022/02/01 02:56:21;;;;;;;7.37;1.90;;;4.40;99.90;;;;;;4875764;29;20487;-77
2022/02/01 02:59:10;;;;;;;6.40;1.97;;;4.50;99.90;;;;;;4852759;29;20804;-77
2022/02/01 03:01:58;;;;;;;10.33;2.63;;;4.40;99.90;;;;;;4863410;29;20476;-77
2022/02/01 03:04:46;;;;;;;4.47;1.73;;;4.40;99.90;;;;;;4849213;29;20479;-77
2022/02/01 03:07:33;;;;;;;7.83;1.97;;;4.50;99.90;;;;;;4851630;29;22188;-78
2022/02/01 03:10:21;;;;;;;4.60;1.37;;;4.50;99.90;;;;;;4850676;29;21549;-77
2022/02/01 03:13:15;;;;;;;9.40;2.30;;;4.50;99.90;;;;;;4849727;29;20466;-77
2022/02/01 03:16:14;;;;;;;5.47;2.00;;;4.50;99.90;;;;;;4863108;29;20516;-77
2022/02/01 03:22:07;;;;;;;8.83;2.37;;;4.50;99.90;;;;;;4852263;29;20468;-76
2022/02/01 03:24:58;;;;;;;7.50;1.70;;;4.50;99.90;;;;;;4850731;29;20487;-78
2022/02/01 03:27:48;;;;;;;5.07;1.47;;;4.50;99.90;;;;;;4850483;29;20482;-77
2022/02/01 03:30:35;;;;;;;7.03;1.70;;;4.50;99.90;;;;;;4851956;29;20536;-77
2022/02/01 03:33:22;;;;;;;5.50;2.07;;;4.50;99.90;;;;;;4850672;29;20989;-78
2022/02/01 03:36:09;;;;;;;5.43;1.80;;;4.60;99.90;;;;;;4859390;29;20993;-78
2022/02/01 03:39:01;;;;;;;3.97;1.40;;;4.60;99.90;;;;;;4850559;29;20471;-77
2022/02/01 03:41:52;;;;;;;10.33;4.30;;;4.60;99.90;;;;;;4862536;29;20491;-77
2022/02/01 03:44:40;;;;;;;6.47;1.57;;;4.60;99.90;;;;;;4849799;29;20500;-78
2022/02/01 03:47:31;;;;;;;4.67;1.47;;;4.60;99.90;;;;;;4850275;29;20967;-78
2022/02/01 03:50:18;;;;;;;7.17;1.70;;;4.60;99.90;;;;;;4851491;29;20469;-78
2022/02/01 03:53:07;;;;;;;3.33;1.57;;;4.60;99.90;;;;;;4852078;29;20837;-78
2022/02/01 03:55:54;;;;;;;9.03;1.60;;;4.60;99.90;;;;;;4848728;29;20480;-77
2022/02/01 03:58:41;;;;;;;7.23;1.70;;;4.60;99.90;;;;;;4850360;29;20459;-77
2022/02/01 04:01:29;;;;;;;9.30;2.10;;;4.70;99.90;;;;;;4850840;29;20456;-77
2022/02/01 04:04:17;;;;;;;3.90;2.30;;;4.60;99.90;;;;;;4848424;29;20485;-78
2022/02/01 04:07:08;;;;;;;6.90;1.73;;;4.60;99.90;;;;;;4860113;29;20460;-77
2022/02/01 04:09:55;;;;;;;5.23;2.00;;;4.70;99.90;;;;;;4863409;29;20475;-78
2022/02/01 04:12:44;;;;;;;8.83;2.10;;;4.70;99.90;;;;;;4849973;29;20470;-77
2022/02/01 04:15:33;;;;;;;5.23;1.67;;;4.60;99.90;;;;;;4869849;29;20533;-78
2022/02/01 04:18:24;;;;;;;4.30;1.80;;;4.70;99.90;;;;;;4858812;29;20457;-78
2022/02/01 04:21:14;;;;;;;5.47;1.93;;;4.60;99.90;;;;;;4859865;29;20467;-78
2022/02/01 04:24:01;;;;;;;4.67;1.77;;;4.60;99.90;;;;;;4858161;29;20480;-78
2022/02/01 04:26:50;;;;;;;8.53;1.87;;;4.60;99.90;;;;;;4860579;29;20826;-78
2022/02/01 04:29:45;;;;;;;7.83;2.00;;;4.60;99.90;;;;;;4861458;29;21734;-77
2022/02/01 04:32:44;;;;;;;4.10;1.97;;;4.60;99.90;;;;;;4870044;29;20550;-77
2022/02/01 04:35:34;;;;;;;4.63;1.97;;;4.60;99.90;;;;;;4851601;29;20499;-77
2022/02/01 04:38:21;;;;;;;4.67;2.03;;;4.60;99.90;;;;;;4862035;29;21052;-77
2022/02/01 04:41:09;;;;;;;4.80;2.27;;;4.60;99.90;;;;;;4850079;29;20600;-77
2022/02/01 04:44:00;;;;;;;12.03;2.43;;;4.60;99.90;;;;;;4849123;29;20480;-74
2022/02/01 04:46:49;;;;;;;7.90;2.20;;;4.60;99.90;;;;;;4847543;29;20468;-77
2022/02/01 04:49:38;;;;;;;8.50;2.30;;;4.60;99.90;;;;;;4849199;29;20488;-77
2022/02/01 04:52:29;;;;;;;9.70;2.27;;;4.70;99.90;;;;;;4848779;29;20459;-77
2022/02/01 04:55:22;;;;;;;6.67;1.57;;;4.70;99.90;;;;;;4859475;29;20480;-77
2022/02/01 04:58:12;;;;;;;10.00;1.80;;;4.70;99.90;;;;;;4850845;29;21003;-77
2022/02/01 05:01:01;;;;;;;7.43;1.70;;;4.70;99.90;;;;;;4862446;29;20975;-77
2022/02/01 05:03:51;;;;;;;9.07;2.30;;;4.70;99.90;;;;;;4849385;29;20535;-77
2022/02/01 05:06:38;;;;;;;7.30;1.80;;;4.70;99.90;;;;;;4849147;29;20480;-77
2022/02/01 05:09:26;;;;;;;7.00;1.87;;;4.70;99.90;;;;;;4849394;29;20487;-77
2022/02/01 05:12:15;;;;;;;8.83;1.67;;;4.70;99.90;;;;;;4848336;29;20460;-77
2022/02/01 05:15:06;;;;;;;4.83;1.70;;;4.70;99.90;;;;;;4849408;29;20487;-77
2022/02/01 05:17:55;;;;;;;4.80;1.80;;;4.70;99.90;;;;;;4847913;29;21068;-77
2022/02/01 05:21:26;;;;;;;4.40;1.20;;;4.70;99.90;;;;;;4860290;29;20525;-77
2022/02/01 05:23:57;;;;;;;7.93;1.93;;;4.80;99.90;;;;;;4850206;29;20479;-77
2022/02/01 05:26:45;;;;;;;9.50;1.80;;;4.80;99.90;;;;;;4847880;29;20487;-77
2022/02/01 05:29:32;;;;;;;7.60;1.50;;;4.70;99.90;;;;;;4850006;29;20495;-77
2022/02/01 05:32:25;;;;;;;7.50;1.70;;;4.80;99.90;;;;;;4849232;29;20467;-77
2022/02/01 05:35:12;;;;;;;6.60;1.70;;;4.90;99.90;;;;;;4851146;29;20550;-77
2022/02/01 05:38:00;;;;;;;10.13;2.20;;;4.90;99.90;;;;;;4850618;29;20459;-77
2022/02/01 05:40:48;;;;;;;7.40;1.97;;;4.90;99.90;;;;;;4847947;29;20957;-77
2022/02/01 05:43:42;;;;;;;6.93;2.00;;;4.90;99.90;;;;;;4845938;29;20484;-77
2022/02/01 05:46:29;;;;;;;6.77;1.80;;;4.90;99.90;;;;;;4859128;29;20484;-77
2022/02/01 05:49:18;;;;;;;4.93;1.83;;;4.90;99.90;;;;;;4847840;29;20459;-77
2022/02/01 05:52:05;;;;;;;12.57;2.97;;;4.90;99.90;;;;;;4846527;29;20578;-77
2022/02/01 05:54:52;;;;;;;8.37;2.60;;;4.90;99.90;;;;;;4849819;29;20466;-78
2022/02/01 05:57:47;;;;;;;11.90;2.63;;;4.90;99.90;;;;;;4849976;29;20448;-77
2022/02/01 06:00:35;;;;;;;5.70;1.70;;;4.90;99.90;;;;;;4844835;29;20480;-77
2022/02/01 06:03:22;;;;;;;6.03;2.60;;;4.80;99.90;;;;;;4849907;29;20477;-76
2022/02/01 06:06:11;;;;;;;8.90;1.93;;;4.80;99.90;;;;;;4846524;29;20999;-77
2022/02/01 06:09:01;;;;;;;6.40;1.67;;;4.90;99.90;;;;;;4845897;29;20465;-78
2022/02/01 06:11:49;;;;;;;8.50;2.23;;;4.90;99.90;;;;;;4851616;29;20513;-76
2022/02/01 06:14:36;;;;;;;5.17;1.73;;;4.80;99.90;;;;;;4850853;29;20487;-76
2022/02/01 06:17:23;;;;;;;14.23;2.80;;;4.90;99.90;;;;;;4846475;29;20458;-77
2022/02/01 06:20:12;;;;;;;5.20;1.90;;;4.80;99.90;;;;;;4859213;29;20459;-79
2022/02/01 06:23:02;;;;;;;6.77;2.43;;;4.80;99.90;;;;;;4843793;29;20464;-78
2022/02/01 06:26:07;;;;;;;7.27;1.93;;;4.80;99.90;;;;;;4854823;29;20861;-78
2022/02/01 06:29:03;;;;;;;6.63;2.00;;;4.80;99.90;;;;;;4856121;29;20459;-78
2022/02/01 06:31:53;;;;;;;10.30;2.47;;;4.80;99.90;;;;;;4846387;29;20480;-78
2022/02/01 06:34:43;;;;;;;5.10;1.80;;;4.80;99.90;;;;;;4856021;29;21116;-80
2022/02/01 06:37:30;;;;;;;4.70;2.20;;;4.80;99.90;;;;;;4844564;29;20460;-78
2022/02/01 06:40:18;;;;;;;7.53;1.90;;;4.80;99.90;;;;;;4842322;29;20673;-76
2022/02/01 06:43:05;;;;;;;7.67;2.50;;;4.80;99.90;;;;;;4844885;29;20967;-78
2022/02/01 06:45:53;;;;;;;11.43;2.27;;;4.80;99.90;;;;;;4845937;29;20499;-76
2022/02/01 06:48:40;;;;;;;5.10;2.10;;;4.80;99.90;;;;;;4855158;29;20459;-76
2022/02/01 06:51:28;;;;;;;14.83;3.70;;;4.80;99.90;;;;;;4846283;29;20856;-77
2022/02/01 06:54:15;;;;;;;7.03;1.67;;;4.80;99.90;;;;;;4859166;29;20472;-77
2022/02/01 06:57:04;;;;;;;6.73;1.70;;;4.80;99.90;;;;;;4843433;29;21038;-76
2022/02/01 06:59:51;;;;;;;8.23;1.87;;;4.80;99.90;;;;;;4871493;29;20455;-77
2022/02/01 07:02:38;;;;;;;3.40;1.73;;;4.80;99.90;;;;;;4843249;29;20472;-76
2022/02/01 07:05:25;;;;;;;5.90;1.87;;;4.80;99.90;;;;;;4848807;29;20488;-77
2022/02/01 07:08:12;;;;;;;7.03;2.17;;;4.80;99.90;;;;;;4844205;29;20464;-75
2022/02/01 07:11:00;;;;;;;4.40;1.77;;;4.70;99.90;;;;;;4858098;29;20493;-77
2022/02/01 07:13:51;;;;;;;6.00;2.30;;;4.70;99.90;;;;;;4859497;29;20491;-76
2022/02/01 07:16:38;;;;;;;9.00;1.83;;;4.70;99.90;;;;;;4834368;29;20471;-76
2022/02/01 07:19:28;;;;;;;4.00;1.70;;;4.80;99.90;;;;;;4859248;29;20468;-77
2022/02/01 07:22:15;;;;;;;5.37;2.10;;;4.80;99.90;;;;;;4849741;29;20802;-76
2022/02/01 07:25:12;;;;;;;6.63;1.20;;;4.80;99.90;;;;;;4844316;29;20496;-76
2022/02/01 07:28:02;;;;;;;9.63;1.80;;;4.80;99.90;;;;;;4860980;29;20464;-76
2022/02/01 07:30:49;;;;;;;4.43;1.70;;;4.70;99.90;;;;;;4847619;29;21000;-76
2022/02/01 07:33:37;;;;;;;5.40;2.13;;;4.70;99.90;;;;;;4860149;29;20463;-76
2022/02/01 07:36:24;;;;;;;6.50;1.60;;;4.80;99.90;;;;;;4847369;29;20580;-77
2022/02/01 07:39:12;;;;;;;13.83;2.50;;;4.80;99.90;;;;;;4859332;29;20475;-76
2022/02/01 07:41:59;;;;;;;5.33;2.53;;;4.80;99.90;;;;;;4848191;29;20878;-76
2022/02/01 07:44:47;;;;;;;6.30;2.10;;;4.80;99.90;;;;;;4870837;29;20487;-76
2022/02/01 07:47:34;;;;;;;7.23;1.70;;;4.70;99.90;;;;;;4847515;29;20456;-75
2022/02/01 07:50:22;;;;;;;4.17;2.10;;;4.80;99.90;;;;;;4857106;29;20471;-77
2022/02/01 07:53:10;;;;;;;9.43;2.10;;;4.80;99.90;;;;;;4849107;29;20838;-77
2022/02/01 07:55:57;;;;;;;4.47;1.40;;;4.80;99.90;;;;;;4845561;29;20694;-75
2022/02/01 07:58:44;;;;;;;6.57;1.90;;;4.90;99.90;;;;;;4843814;29;21680;-77
2022/02/01 08:01:32;;;;;;;3.00;1.80;;;4.80;99.90;;;;;;4846694;29;20444;-77
2022/02/01 08:04:19;;;;;;;3.53;1.77;;;4.80;99.90;;;;;;4846675;29;20471;-76
2022/02/01 08:07:07;;;;;;;5.83;2.20;;;4.90;99.90;;;;;;4846800;29;20512;-76
2022/02/01 08:10:01;;;;;;;10.73;2.80;;;4.80;99.90;;;;;;4856352;29;20552;-76
2022/02/01 08:16:21;;;;;;;5.70;2.17;;;4.90;99.90;;;;;;4845612;29;20481;-76
2022/02/01 08:18:59;;;;;;;9.93;2.60;;;4.80;99.90;;;;;;4847217;29;20506;-76
2022/02/01 08:22:20;;;;;;;4.27;1.73;;;4.90;99.90;;;;;;4845463;29;20445;-76
2022/02/01 08:25:07;;;;;;;5.77;2.53;;;4.90;99.90;;;;;;4844979;29;20495;-76
2022/02/01 08:27:57;;;;;;;10.90;2.10;;;4.90;99.90;;;;;;4870743;29;20554;-76
2022/02/01 08:30:44;;;;;;;6.40;2.60;;;5.00;99.90;;;;;;4846923;29;21003;-76
2022/02/01 08:33:31;;;;;;;6.47;2.20;;;5.00;99.90;;;;;;4845079;29;20508;-76
2022/02/01 08:36:18;;;;;;;2.90;1.63;;;5.00;99.90;;;;;;4842023;29;21039;-76
2022/02/01 08:39:05;;;;;;;3.67;1.83;;;5.00;99.90;;;;;;4844376;29;20467;-78
2022/02/01 08:41:52;;;;;;;7.57;1.87;;;5.00;99.90;;;;;;4845751;29;20451;-77
2022/02/01 08:44:40;;;;;;;4.27;2.20;;;5.00;99.90;;;;;;4845071;29;20498;-77
2022/02/01 08:47:30;;;;;;;6.00;1.70;;;5.00;99.90;;;;;;4844600;29;20556;-76
2022/02/01 08:50:22;;;;;;;9.30;1.90;;;5.00;99.90;;;;;;4848125;29;20462;-76
2022/02/01 08:53:14;;;;;;;9.67;2.17;;;5.10;99.90;;;;;;4849761;29;20597;-76
2022/02/01 08:56:03;;;;;;;4.47;1.83;;;5.10;99.90;;;;;;4847917;29;20856;-77
2022/02/01 08:58:50;;;;;;;10.77;2.47;;;5.10;99.90;;;;;;4859351;29;20562;-76
2022/02/01 09:01:37;;;;;;;3.47;2.00;;;5.10;99.90;;;;;;4846617;29;20836;-76
2022/02/01 09:04:27;;;;;;;7.70;2.07;;;5.10;99.90;;;;;;4848084;29;20857;-76
2022/02/01 09:07:15;;;;;;;6.57;2.17;;;5.10;99.90;;;;;;4860362;29;20458;-76
2022/02/01 09:10:02;;;;;;;6.60;2.40;;;5.00;99.90;;;;;;4849783;29;20505;-76
2022/02/01 09:12:50;;;;;;;5.90;2.93;;;5.00;99.90;;;;;;4846505;29;20486;-76
2022/02/01 09:15:37;;;;;;;5.27;2.67;;;5.00;99.90;;;;;;4846117;29;20487;-76
2022/02/01 09:18:24;;;;;;;6.30;2.43;;;5.10;99.90;;;;;;4847255;29;20976;-76
2022/02/01 09:21:12;;;;;;;5.50;2.60;;;5.10;99.90;;;;;;4849025;29;20457;-76
2022/02/01 09:23:59;;;;;;;4.40;2.00;;;5.20;99.90;;;;;;4883781;23;20521;-76
2022/02/01 09:26:46;;;;;;;7.00;2.30;;;5.30;99.90;;;;;;4881464;29;20459;-75
2022/02/01 09:29:38;;;;;;;4.87;3.03;;;5.30;99.90;;;;;;4885026;29;20442;-76
2022/02/01 09:32:25;;;;;;;8.53;2.37;;;5.30;99.90;;;;;;4882996;29;20480;-76
2022/02/01 09:35:25;;;;;;;6.73;2.87;;;5.40;99.90;;;;;;4872910;29;20482;-75
2022/02/01 09:38:15;;;;;;;5.90;2.50;;;5.40;99.90;;;;;;4883217;29;20462;-76
2022/02/01 09:41:05;;;;;;;7.13;2.77;;;5.50;99.90;;;;;;4880053;29;20462;-76
2022/02/01 09:43:53;;;;;;;3.57;2.40;;;5.40;99.90;;;;;;4880453;29;20499;-75
2022/02/01 09:46:45;;;;;;;7.80;2.30;;;5.40;99.90;;;;;;4878161;29;20500;-76
2022/02/01 09:49:33;;;;;;;4.20;2.40;;;5.40;99.90;;;;;;4879935;29;20997;-76
2022/02/01 09:52:21;;;;;;;6.53;3.03;;;5.50;99.90;;;;;;4881377;29;20497;-76
2022/02/01 09:55:14;;;;;;;4.67;3.20;;;5.40;99.90;;;;;;4881134;29;20506;-75
2022/02/01 09:58:02;;;;;;;8.70;3.77;;;5.30;99.90;;;;;;4883368;29;20458;-76
2022/02/01 10:00:53;;;;;;;9.40;4.33;;;5.40;99.90;;;;;;4879299;29;20463;-75
2022/02/01 10:03:41;;;;;;;7.90;4.40;;;5.30;99.90;;;;;;4880806;29;20478;-75
2022/02/01 10:06:48;;;;;;;8.23;4.87;;;5.20;99.90;;;;;;4878312;29;21008;-76
2022/02/01 10:09:57;;;;;;;9.23;4.83;;;5.30;99.90;;;;;;4885107;29;20944;-77
2022/02/01 10:12:59;;;;;;;9.17;5.73;;;5.20;99.90;;;;;;4879027;29;20522;-76
2022/02/01 10:16:02;;;;;;;11.83;5.70;;;5.20;99.90;;;;;;4867552;29;20477;-77
2022/02/01 10:18:49;;;;;;;8.50;6.53;;;5.10;99.90;;;;;;4883685;29;20468;-76
2022/02/01 10:22:01;;;;;;;6.63;5.67;;;5.20;99.90;;;;;;4881267;29;20455;-76
2022/02/01 10:24:49;;;;;;;11.33;5.20;;;5.20;99.90;;;;;;4882173;29;20497;-77
2022/02/01 10:27:41;;;;;;;9.13;5.50;;;5.20;99.90;;;;;;4879552;29;20855;-76
2022/02/01 10:30:41;;;;;;;10.57;5.20;;;5.20;99.90;;;;;;4870305;29;20990;-76
2022/02/01 10:34:00;;;;;;;8.00;4.40;;;5.10;99.90;;;;;;4880336;29;20509;-76
2022/02/01 10:36:40;;;;;;;9.37;5.03;;;5.00;99.90;;;;;;4883468;29;20478;-76
2022/02/01 10:39:33;;;;;;;8.13;5.43;;;4.90;99.90;;;;;;4882561;29;20466;-76
2022/02/01 10:42:20;;;;;;;8.90;4.63;;;4.90;99.90;;;;;;4881044;29;20477;-76
2022/02/01 10:45:08;;;;;;;5.43;4.10;;;4.90;99.90;;;;;;4882541;29;20574;-76
2022/02/01 10:47:55;;;;;;;7.47;4.03;;;4.90;99.90;;;;;;4885750;29;20456;-76
2022/02/01 10:50:45;;;;;;;7.30;4.40;;;4.90;99.90;;;;;;4874829;29;20459;-76
2022/02/01 10:53:32;;;;;;;5.20;4.10;;;4.90;99.90;;;;;;4884742;29;20478;-76
2022/02/01 10:56:21;;;;;;;4.90;3.60;;;5.00;99.90;;;;;;4873857;29;20538;-75
2022/02/01 10:59:08;;;;;;;4.87;4.13;;;4.90;99.90;;;;;;4877027;29;20454;-75
2022/02/01 11:01:57;;;;;;;6.73;4.23;;;4.80;99.90;;;;;;4884322;29;20473;-77
2022/02/01 11:04:47;;;;;;;4.03;3.60;;;4.90;99.90;;;;;;4885098;29;20485;-76
2022/02/01 11:07:35;;;;;;;6.33;3.70;;;4.90;99.90;;;;;;4874538;29;20453;-76
2022/02/01 11:10:22;;;;;;;6.17;4.00;;;5.00;99.90;;;;;;4884795;29;20481;-78
2022/02/01 11:13:12;;;;;;;5.10;3.90;;;5.00;99.90;;;;;;4885320;29;20482;-76
2022/02/01 11:16:01;;;;;;;4.83;3.80;;;4.90;99.90;;;;;;4885831;29;20501;-76
2022/02/01 11:19:05;;;;;;;6.17;3.57;;;4.90;99.90;;;;;;4884943;29;20443;-76
2022/02/01 11:21:55;;;;;;;6.13;4.20;;;5.00;99.90;;;;;;4877357;29;20488;-76
2022/02/01 11:24:59;;;;;;;4.40;3.80;;;4.90;99.90;;;;;;4883494;29;20524;-77
2022/02/01 11:30:57;;;;;;;4.87;3.90;;;5.20;99.90;;;;;;4886040;29;20459;-76
2022/02/01 11:33:49;;;;;;;4.10;3.13;;;5.20;99.90;;;;;;4884424;29;20474;-76
2022/02/01 11:36:40;;;;;;;6.50;3.77;;;5.20;99.90;;;;;;4885327;29;20474;-75
2022/02/01 11:39:28;;;;;;;6.07;3.97;;;5.20;99.90;;;;;;4884153;29;20450;-76
2022/02/01 11:42:16;;;;;;;6.50;3.40;;;5.10;99.90;;;;;;4886851;29;20447;-76
2022/02/01 11:45:06;;;;;;;4.17;3.77;;;5.20;99.90;;;;;;4884112;29;21379;-76
2022/02/01 11:47:53;;;;;;;3.73;3.40;;;5.40;99.90;;;;;;4883303;29;20462;-76
2022/02/01 11:51:12;;;;;;;6.23;3.60;;;5.40;99.90;;;;;;4875337;29;20608;-75
2022/02/01 11:54:00;;;;;;;5.40;3.83;;;5.40;99.90;;;;;;4884297;29;21105;-76
2022/02/01 11:56:47;;;;;;;6.90;4.37;;;5.50;99.90;;;;;;4883404;29;20465;-76
2022/02/01 11:59:49;;;;;;;4.40;3.60;;;5.50;99.90;;;;;;4882061;29;20451;-76
2022/02/01 12:05:33;;;;;;;4.70;3.50;;;5.70;99.90;;;;;;4885084;29;20500;-76
2022/02/01 12:08:25;;;;;;;4.13;3.73;;;5.70;99.90;;;;;;4885817;29;20461;-76
2022/02/01 12:11:13;;;;;;;4.77;4.00;;;5.70;99.90;;;;;;4883071;29;20467;-76
2022/02/01 12:14:04;;;;;;;4.90;4.23;;;5.70;99.90;;;;;;4883462;29;20481;-75
2022/02/01 12:16:54;;;;;;;5.10;4.30;;;5.80;99.90;;;;;;4881369;29;20455;-76
2022/02/01 12:19:53;;;;;;;5.30;4.27;;;5.80;99.90;;;;;;4879868;29;20465;-75
2022/02/01 12:23:20;;;;;;;4.40;3.90;;;5.90;99.90;;;;;;4873981;29;20462;-76
2022/02/01 12:26:23;;;;;;;5.53;4.33;;;5.90;99.90;;;;;;4867404;29;20487;-76
2022/02/01 12:29:13;;;;;;;5.63;4.40;;;5.90;99.90;;;;;;4882855;29;21002;-75
2022/02/01 12:32:07;;;;;;;4.53;4.03;;;6.00;99.90;;;;;;4879335;29;20466;-76
2022/02/01 12:34:54;;;;;;;4.47;3.50;;;6.00;99.90;;;;;;4880375;29;20494;-75
2022/02/01 12:37:42;;;;;;;3.60;3.30;;;6.10;99.90;;;;;;4879672;29;20860;-76
2022/02/01 12:40:35;;;;;;;3.23;2.93;;;6.10;99.90;;;;;;4872011;29;20450;-76
2022/02/01 12:43:26;;;;;;;4.20;3.03;;;6.10;99.90;;;;;;4878331;29;20475;-76
2022/02/01 12:49:53;;;;;;;4.70;3.10;;;6.30;99.90;;;;;;4885988;29;20516;-75
2022/02/01 12:52:41;;;;;;;3.53;3.00;;;6.40;99.90;;;;;;4881779;29;20959;-75
2022/02/01 12:55:35;;;;;;;4.90;3.30;;;6.50;99.90;;;;;;4878912;29;20482;-74
2022/02/01 12:58:30;;;;;;;3.20;2.83;;;6.60;99.90;;;;;;4867876;29;20441;-75
2022/02/01 13:01:37;;;;;;;3.57;2.70;;;6.60;99.90;;;;;;4888087;29;20590;-74
2022/02/01 13:04:24;;;;;;;3.07;2.60;;;6.70;99.90;;;;;;4873369;29;20496;-75
2022/02/01 13:16:40;;;;;;;4.40;2.73;;;6.90;99.90;;;;;;4880570;29;20485;-75
2022/02/01 13:23:05;;;;;;;3.43;2.53;;;7.00;99.90;;;;;;4883845;29;20494;-74
2022/02/01 13:25:54;;;;;;;4.90;2.77;;;7.00;99.90;;;;;;4881207;29;20481;-74
2022/02/01 13:28:42;;;;;;;5.13;2.33;;;7.10;99.90;;;;;;4882478;29;20501;-74
2022/02/01 13:31:43;;;;;;;5.40;2.80;;;7.10;99.90;;;;;;4883051;29;20978;-73
2022/02/01 13:34:30;;;;;;;6.57;3.37;;;7.20;99.90;;;;;;4878181;29;20592;-74
2022/02/01 13:37:21;;;;;;;3.83;3.33;;;7.30;99.90;;;;;;4880491;29;22114;-74
2022/02/01 13:40:09;;;;;;;6.40;2.93;;;7.20;99.90;;;;;;4876871;29;20470;-76
2022/02/01 13:42:57;;;;;;;5.00;3.00;;;7.40;99.90;;;;;;4882241;29;20477;-75
2022/02/01 13:45:48;;;;;;;11.60;3.57;;;7.50;99.90;;;;;;4877869;29;20486;-75
2022/02/01 13:48:36;;;;;;;8.63;3.10;;;7.50;99.90;;;;;;4868904;29;20560;-76
2022/02/01 13:51:23;;;;;;;6.40;2.67;;;7.60;99.90;;;;;;4865628;29;20461;-75
2022/02/01 13:54:10;;;;;;;7.17;2.97;;;7.60;99.90;;;;;;4882890;29;20530;-75
2022/02/01 13:56:57;;;;;;;7.83;2.87;;;7.60;99.90;;;;;;4882034;29;20451;-76
2022/02/01 13:59:46;;;;;;;12.00;3.07;;;7.80;99.90;;;;;;4878401;29;20992;-75
2022/02/01 14:02:41;;;;;;;14.10;2.50;;;7.70;99.90;;;;;;4880309;29;20450;-76
2022/02/01 14:05:32;;;;;;;10.47;2.63;;;7.80;99.90;;;;;;4866484;29;20594;-76
2022/02/01 14:08:38;;;;;;;9.30;2.67;;;7.80;99.90;;;;;;4877072;29;20978;-75
2022/02/01 14:35:18;;;;;;;17.13;3.40;;;8.00;99.90;;;;;;4881274;29;20479;-75
2022/02/01 14:38:32;;;;;;;17.27;3.33;;;8.10;99.90;;;;;;4895752;29;20467;-75
2022/02/01 14:44:41;;;;;;;18.00;3.13;;;8.10;99.90;;;;;;4891084;29;20581;-75
2022/02/01 14:47:28;;;;;;;12.13;3.20;;;8.10;99.90;;;;;;4884337;29;20981;-75
2022/02/01 14:50:17;;;;;;;7.73;2.50;;;8.10;99.90;;;;;;4885706;29;20466;-75
2022/02/01 14:53:04;;;;;;;9.80;3.03;;;8.10;99.90;;;;;;4882524;29;20479;-75
2022/02/01 14:56:07;;;;;;;13.40;3.40;;;8.20;99.90;;;;;;4869180;29;20496;-75
2022/02/01 15:11:23;;;;;;;10.87;2.93;;;8.30;99.90;;;;;;4879050;29;20462;-76
2022/02/01 15:14:10;;;;;;;8.77;3.03;;;8.30;99.90;;;;;;4878771;29;21006;-75
2022/02/01 15:16:57;;;;;;;6.60;2.37;;;8.40;99.90;;;;;;4881323;29;21026;-76
2022/02/01 15:19:45;;;;;;;10.60;3.23;;;8.40;99.90;;;;;;4872893;29;20450;-76
2022/02/01 15:22:41;;;;;;;7.73;3.10;;;8.30;99.90;;;;;;4883324;29;20461;-75
2022/02/01 15:25:28;;;;;;;8.00;2.57;;;8.30;99.90;;;;;;4884174;29;20489;-75
2022/02/01 15:28:16;;;;;;;10.90;2.90;;;8.40;99.90;;;;;;4875381;29;20959;-75
2022/02/01 15:31:05;;;;;;;9.87;2.80;;;8.30;99.90;;;;;;4884944;29;20978;-75
2022/02/01 15:33:52;;;;;;;5.43;1.60;;;8.30;99.90;;;;;;4884688;29;20490;-75
2022/02/01 15:36:39;;;;;;;5.23;1.80;;;8.30;99.90;;;;;;4883740;29;20500;-75
2022/02/01 15:58:04;;;;;;;9.03;1.87;;;8.30;99.90;;;;;;4885703;29;20954;-75
2022/02/01 16:00:54;;;;;;;13.57;2.70;;;8.40;99.90;;;;;;4873196;29;20459;-75
2022/02/01 16:03:46;;;;;;;13.37;3.60;;;8.30;99.90;;;;;;4886235;29;20478;-75
2022/02/01 16:06:36;;;;;;;10.37;2.60;;;8.30;99.90;;;;;;4876733;29;20479;-75
2022/02/01 16:09:42;;;;;;;11.23;4.00;;;8.20;99.90;;;;;;4871663;29;20886;-75
2022/02/01 16:12:37;;;;;;;17.47;3.97;;;8.20;99.90;;;;;;4884647;29;20797;-75
2022/02/01 16:15:24;;;;;;;18.70;3.87;;;8.20;99.90;;;;;;4884927;29;20490;-75
2022/02/01 16:18:11;;;;;;;10.10;3.67;;;8.30;99.90;;;;;;4878482;29;20997;-75
2022/02/01 16:21:00;;;;;;;12.20;3.63;;;8.30;99.90;;;;;;4883410;29;20454;-76
2022/02/01 16:24:07;;;;;;;13.30;4.70;;;8.30;99.90;;;;;;4871574;29;20587;-75
2022/02/01 16:26:54;;;;;;;16.17;4.70;;;8.40;99.90;;;;;;4879805;29;20966;-75
2022/02/01 16:29:45;;;;;;;18.13;4.23;;;8.40;99.90;;;;;;4880839;29;20481;-75
2022/02/01 16:32:32;;;;;;;11.77;3.70;;;8.30;99.90;;;;;;4883061;29;20881;-75
2022/02/01 16:35:26;;;;;;;15.00;4.50;;;8.30;99.90;;;;;;4880180;29;20485;-75
2022/02/01 16:38:13;;;;;;;11.37;3.03;;;8.30;99.90;;;;;;4879443;29;20489;-75
2022/02/01 16:41:17;;;;;;;10.23;3.67;;;8.30;99.90;;;;;;4869684;29;20461;-75
2022/02/01 16:44:05;;;;;;;8.80;3.00;;;8.10;99.90;;;;;;4880831;29;20474;-75
2022/02/01 16:46:57;;;;;;;16.60;3.10;;;8.00;99.90;;;;;;4868569;29;20575;-75
2022/02/01 16:49:45;;;;;;;15.93;4.13;;;7.90;99.90;;;;;;4877767;29;21014;-75
2022/02/01 16:52:39;;;;;;;7.43;2.37;;;7.90;99.90;;;;;;4879246;29;20474;-75
2022/02/01 16:56:14;;;;;;;8.40;2.70;;;7.90;99.90;;;;;;4876684;29;20486;-75
2022/02/01 16:58:43;;;;;;;7.83;2.37;;;7.80;99.90;;;;;;4882924;29;20892;-75
2022/02/01 17:01:30;;;;;;;6.90;2.70;;;7.70;99.90;;;;;;4881078;29;20453;-76
2022/02/01 17:04:18;;;;;;;6.70;2.20;;;7.70;99.90;;;;;;4868188;29;20525;-78
2022/02/01 17:07:08;;;;;;;7.90;2.20;;;7.70;99.90;;;;;;4888006;29;20463;-78
2022/02/01 17:09:57;;;;;;;12.37;3.03;;;7.60;99.90;;;;;;4872476;29;20450;-77
2022/02/01 17:13:11;;;;;;;10.53;2.60;;;7.60;99.90;;;;;;4879255;29;20478;-76
2022/02/01 17:21:44;;;;;;;9.90;3.00;;;7.60;99.90;;;;;;4882143;29;20446;-76
2022/02/01 17:24:33;;;;;;;8.90;2.53;;;7.60;99.90;;;;;;4881409;29;20489;-76
2022/02/01 17:27:20;;;;;;;13.60;3.07;;;7.60;99.90;;;;;;4868430;29;20458;-74
2022/02/01 17:30:08;;;;;;;14.57;3.67;;;7.60;99.90;;;;;;4884681;29;20462;-76
2022/02/01 17:32:58;;;;;;;12.50;4.83;;;7.60;99.90;;;;;;4880332;29;20509;-75
2022/02/01 17:35:49;;;;;;;10.57;3.43;;;7.70;99.90;;;;;;4880764;29;20577;-76